Time;durP1;ratioP1;P1;durP2;ratioP2;P2;SDS_P1;SDS_P2;PMS_P1;PMS_P2;Temp;Humidity;BMP_temperature;BMP_pressure;BME280_temperature;BME280_humidity;BME280_pressure;Samples;Min_cycle;Max_cycle;Signal;HPM_P1;HPM_P2
2021/12/01 00:01:39;;;;;;;4.13;1.90;;;3.20;99.90;;;;;;5006927;28;20510;-63
2021/12/01 00:04:06;;;;;;;3.35;1.33;;;3.30;99.90;;;;;;5008704;28;20104;-63
2021/12/01 00:06:32;;;;;;;3.20;1.63;;;3.40;99.90;;;;;;5007020;28;20030;-62
2021/12/01 00:08:58;;;;;;;2.45;1.45;;;3.40;99.90;;;;;;5009818;28;20037;-63
2021/12/01 00:11:24;;;;;;;3.40;1.50;;;3.40;99.90;;;;;;5011755;28;20089;-66
2021/12/01 00:13:50;;;;;;;4.40;1.98;;;3.30;99.90;;;;;;5011825;28;20050;-63
2021/12/01 00:16:16;;;;;;;8.00;1.92;;;3.30;99.90;;;;;;5011903;28;20594;-64
2021/12/01 00:18:41;;;;;;;5.93;2.13;;;3.30;99.90;;;;;;5010508;28;20026;-63
2021/12/01 00:21:07;;;;;;;4.20;1.75;;;3.30;99.90;;;;;;5011901;28;20096;-63
2021/12/01 00:23:34;;;;;;;3.63;1.45;;;3.40;99.90;;;;;;5011163;28;20030;-63
2021/12/01 00:26:00;;;;;;;4.63;1.67;;;3.50;99.90;;;;;;5011368;28;20026;-63
2021/12/01 00:28:26;;;;;;;3.25;1.70;;;3.50;99.90;;;;;;5011271;28;20030;-67
2021/12/01 00:30:52;;;;;;;3.22;1.52;;;3.50;99.90;;;;;;4996904;28;20406;-63
2021/12/01 00:33:22;;;;;;;2.22;1.23;;;3.60;99.90;;;;;;5010941;28;20109;-63
2021/12/01 00:35:54;;;;;;;2.08;1.05;;;3.50;99.90;;;;;;5010725;28;20018;-62
2021/12/01 00:38:21;;;;;;;1.83;1.08;;;3.60;99.90;;;;;;5011614;28;20060;-63
2021/12/01 00:40:47;;;;;;;3.58;1.40;;;3.50;99.90;;;;;;5011193;28;20163;-62
2021/12/01 00:43:19;;;;;;;3.17;1.30;;;3.50;99.90;;;;;;5012031;28;20140;-62
2021/12/01 00:45:53;;;;;;;2.28;1.10;;;3.50;99.90;;;;;;5003514;28;20033;-62
2021/12/01 00:48:20;;;;;;;2.95;1.20;;;3.60;99.90;;;;;;5011969;28;20033;-62
2021/12/01 00:50:47;;;;;;;3.45;1.25;;;3.50;99.90;;;;;;5009431;28;20629;-63
2021/12/01 00:53:13;;;;;;;2.83;1.20;;;3.50;99.90;;;;;;5011533;28;20048;-64
2021/12/01 00:55:41;;;;;;;2.65;1.17;;;3.50;99.90;;;;;;5010502;28;20051;-62
2021/12/01 00:58:07;;;;;;;2.42;1.02;;;3.60;99.90;;;;;;4993646;28;20113;-63
2021/12/01 01:00:33;;;;;;;2.45;1.10;;;3.60;99.90;;;;;;4991986;28;20550;-64
2021/12/01 01:02:59;;;;;;;2.95;1.23;;;3.60;99.90;;;;;;5011120;28;20080;-62
2021/12/01 01:05:26;;;;;;;2.22;0.93;;;3.60;99.90;;;;;;4970281;28;20042;-67
2021/12/01 01:07:53;;;;;;;1.70;0.60;;;3.60;99.90;;;;;;5010884;28;20042;-63
2021/12/01 01:18:25;;;;;;;1.73;0.65;;;3.60;99.90;;;;;;5011055;28;20084;-63
2021/12/01 01:20:51;;;;;;;1.13;0.63;;;3.60;99.90;;;;;;4991576;28;20076;-64
2021/12/01 01:23:17;;;;;;;2.45;1.08;;;3.60;99.90;;;;;;5010751;28;20061;-63
2021/12/01 01:25:43;;;;;;;1.75;0.68;;;3.60;99.90;;;;;;5008943;28;20050;-63
2021/12/01 01:28:08;;;;;;;2.03;0.70;;;3.60;99.90;;;;;;5010844;28;20089;-63
2021/12/01 01:30:34;;;;;;;1.70;0.90;;;3.60;99.90;;;;;;5009853;28;20030;-63
2021/12/01 01:33:00;;;;;;;3.42;0.80;;;3.50;99.90;;;;;;5003119;28;20132;-63
2021/12/01 01:35:26;;;;;;;1.92;0.75;;;3.60;99.90;;;;;;5000234;28;20029;-66
2021/12/01 01:37:51;;;;;;;1.30;0.80;;;3.50;99.90;;;;;;5009417;28;20034;-66
2021/12/01 01:40:18;;;;;;;1.80;1.10;;;3.50;99.90;;;;;;4983583;28;21648;-63
2021/12/01 01:42:44;;;;;;;1.92;1.02;;;3.50;99.90;;;;;;5010145;28;20430;-63
2021/12/01 01:45:10;;;;;;;1.98;0.80;;;3.50;99.90;;;;;;5009605;28;20104;-63
2021/12/01 01:47:45;;;;;;;1.35;0.60;;;3.50;99.90;;;;;;5009460;28;20446;-65
2021/12/01 01:52:46;;;;;;;1.27;0.57;;;3.50;99.90;;;;;;5008782;28;20040;-65
2021/12/01 01:55:12;;;;;;;2.53;1.05;;;3.60;99.90;;;;;;5008820;28;20109;-63
2021/12/01 01:57:38;;;;;;;2.22;0.80;;;3.60;99.90;;;;;;5008758;28;20117;-63
2021/12/01 02:00:08;;;;;;;2.17;0.70;;;3.60;99.90;;;;;;5008473;28;20076;-65
2021/12/01 02:02:34;;;;;;;1.80;0.77;;;3.70;99.90;;;;;;4999395;28;20042;-63
2021/12/01 02:05:00;;;;;;;2.33;0.70;;;3.70;99.90;;;;;;5010326;28;20109;-63
2021/12/01 02:07:26;;;;;;;1.58;0.63;;;3.60;99.90;;;;;;5009881;28;20122;-65
2021/12/01 02:09:52;;;;;;;1.80;0.70;;;3.60;99.90;;;;;;5009026;28;20068;-64
2021/12/01 02:12:17;;;;;;;3.95;0.82;;;3.60;99.90;;;;;;5008653;28;20053;-64
2021/12/01 02:14:43;;;;;;;4.70;0.70;;;3.50;99.90;;;;;;5007768;28;20103;-64
2021/12/01 02:17:09;;;;;;;1.10;0.77;;;3.50;99.90;;;;;;5009233;28;20038;-63
2021/12/01 02:19:38;;;;;;;1.55;0.75;;;3.50;99.90;;;;;;5009327;28;20034;-64
2021/12/01 02:22:04;;;;;;;1.13;0.63;;;3.50;99.90;;;;;;5009245;28;20037;-66
2021/12/01 02:24:29;;;;;;;2.58;0.80;;;3.50;99.90;;;;;;4990497;28;20324;-68
2021/12/01 02:26:55;;;;;;;1.33;0.60;;;3.50;99.90;;;;;;5009760;28;20103;-63
2021/12/01 02:29:27;;;;;;;1.63;0.70;;;3.50;99.90;;;;;;5009842;28;20041;-65
2021/12/01 02:31:54;;;;;;;1.90;0.70;;;3.50;99.90;;;;;;4996634;28;20053;-64
2021/12/01 02:34:23;;;;;;;2.08;0.73;;;3.50;99.90;;;;;;5008758;28;20038;-64
2021/12/01 02:36:52;;;;;;;1.80;0.60;;;3.50;99.90;;;;;;5008634;28;20025;-63
2021/12/01 02:39:18;;;;;;;1.80;0.88;;;3.50;99.90;;;;;;4991056;28;20030;-63
2021/12/01 02:41:45;;;;;;;1.15;0.50;;;3.50;99.90;;;;;;5008864;28;20100;-65
2021/12/01 02:44:16;;;;;;;3.28;0.68;;;3.50;99.90;;;;;;4989769;28;20029;-63
2021/12/01 02:46:43;;;;;;;2.03;0.55;;;3.60;99.90;;;;;;5008450;28;20041;-64
2021/12/01 02:49:08;;;;;;;0.95;0.60;;;3.60;99.90;;;;;;5009589;28;20029;-63
2021/12/01 02:51:36;;;;;;;1.20;0.60;;;3.70;99.90;;;;;;5008734;28;20034;-68
2021/12/01 02:54:03;;;;;;;1.27;0.60;;;3.70;99.90;;;;;;5007345;28;20057;-64
2021/12/01 02:56:31;;;;;;;1.17;0.65;;;3.60;99.90;;;;;;4991164;28;20030;-63
2021/12/01 02:58:59;;;;;;;1.13;0.57;;;3.70;99.90;;;;;;5007487;28;20037;-64
2021/12/01 03:01:25;;;;;;;1.15;0.60;;;3.70;99.90;;;;;;5014965;28;20109;-63
2021/12/01 03:03:52;;;;;;;1.63;0.70;;;3.70;99.90;;;;;;5008047;28;20037;-64
2021/12/01 03:06:21;;;;;;;1.30;0.55;;;3.70;99.90;;;;;;5007374;28;20030;-63
2021/12/01 03:08:47;;;;;;;1.15;0.52;;;3.70;99.90;;;;;;5009772;28;20137;-63
2021/12/01 03:11:15;;;;;;;1.83;1.00;;;3.80;99.90;;;;;;5011008;28;20034;-63
2021/12/01 03:13:41;;;;;;;1.13;0.65;;;3.80;99.90;;;;;;5008136;28;20042;-64
2021/12/01 03:16:07;;;;;;;4.22;0.80;;;3.70;99.90;;;;;;5008248;28;20061;-65
2021/12/01 03:18:33;;;;;;;1.95;0.60;;;3.70;99.90;;;;;;5007973;28;20093;-68
2021/12/01 03:21:00;;;;;;;2.78;0.77;;;3.70;99.90;;;;;;4978253;28;20030;-63
2021/12/01 03:23:26;;;;;;;1.90;0.70;;;3.70;99.90;;;;;;5000360;28;20041;-63
2021/12/01 03:25:52;;;;;;;1.80;0.85;;;3.70;99.90;;;;;;5007993;28;20025;-64
2021/12/01 03:28:18;;;;;;;1.75;0.70;;;3.80;99.90;;;;;;5012077;28;20437;-63
2021/12/01 03:30:45;;;;;;;1.27;0.50;;;3.70;99.90;;;;;;4990096;28;20093;-63
2021/12/01 03:33:16;;;;;;;2.17;0.60;;;3.80;99.90;;;;;;5008625;28;20088;-63
2021/12/01 03:35:44;;;;;;;1.35;0.65;;;3.80;99.90;;;;;;4989744;28;20038;-63
2021/12/01 03:38:10;;;;;;;2.33;0.70;;;3.80;99.90;;;;;;4990910;28;20057;-63
2021/12/01 03:40:36;;;;;;;1.40;0.63;;;3.80;99.90;;;;;;5007711;28;20048;-67
2021/12/01 03:43:02;;;;;;;0.47;0.30;;;3.90;99.90;;;;;;4989808;28;20034;-64
2021/12/01 03:45:28;;;;;;;0.80;0.40;;;3.90;99.90;;;;;;4975317;28;20380;-64
2021/12/01 03:47:54;;;;;;;1.00;0.50;;;4.00;99.90;;;;;;5006257;28;20032;-64
2021/12/01 03:50:20;;;;;;;0.75;0.30;;;4.00;99.90;;;;;;5012344;28;20145;-63
2021/12/01 03:52:46;;;;;;;1.30;0.47;;;4.10;99.90;;;;;;5011723;28;20520;-64
2021/12/01 03:55:11;;;;;;;1.15;0.50;;;4.10;99.90;;;;;;5012469;28;20069;-65
2021/12/01 03:57:38;;;;;;;0.60;0.30;;;4.10;99.90;;;;;;4998243;28;20029;-67
2021/12/01 04:00:08;;;;;;;0.90;0.50;;;4.10;99.90;;;;;;5012087;28;20105;-66
2021/12/01 04:02:34;;;;;;;1.23;0.68;;;4.10;99.90;;;;;;5014902;28;20048;-65
2021/12/01 04:05:00;;;;;;;0.85;0.40;;;4.10;99.90;;;;;;5011523;28;20038;-62
2021/12/01 04:07:26;;;;;;;0.70;0.30;;;4.10;99.90;;;;;;5011725;28;20121;-65
2021/12/01 04:09:51;;;;;;;1.33;0.52;;;4.10;99.90;;;;;;5011313;28;20038;-64
2021/12/01 04:12:18;;;;;;;1.73;0.70;;;4.00;99.90;;;;;;5012209;28;20034;-63
2021/12/01 04:14:44;;;;;;;0.82;0.40;;;4.00;99.90;;;;;;5010628;28;20042;-65
2021/12/01 04:17:10;;;;;;;1.13;0.40;;;3.90;99.90;;;;;;5011512;28;20390;-63
2021/12/01 04:19:35;;;;;;;1.42;0.50;;;3.90;99.90;;;;;;5011347;28;20099;-66
2021/12/01 04:22:02;;;;;;;2.20;0.55;;;3.80;99.90;;;;;;5010430;28;20037;-63
2021/12/01 04:24:28;;;;;;;1.92;0.80;;;3.80;99.90;;;;;;5010368;28;20056;-63
2021/12/01 04:26:54;;;;;;;1.05;0.40;;;3.70;99.90;;;;;;5010903;28;20049;-64
2021/12/01 04:29:20;;;;;;;0.80;0.45;;;3.70;99.90;;;;;;5010445;28;20030;-64
2021/12/01 04:31:45;;;;;;;0.98;0.50;;;3.80;99.90;;;;;;5008861;28;20505;-64
2021/12/01 04:34:11;;;;;;;1.58;0.73;;;3.70;99.90;;;;;;5002875;28;20088;-65
2021/12/01 04:36:40;;;;;;;2.15;0.90;;;3.70;99.90;;;;;;5010531;28;20038;-69
2021/12/01 04:39:10;;;;;;;3.40;0.70;;;3.70;99.90;;;;;;5014633;28;20029;-66
2021/12/01 04:41:39;;;;;;;1.35;0.50;;;3.70;99.90;;;;;;5011094;28;20078;-65
2021/12/01 04:44:11;;;;;;;1.20;0.60;;;3.70;99.90;;;;;;5006619;28;20033;-63
2021/12/01 04:46:44;;;;;;;1.17;0.50;;;3.70;99.90;;;;;;5009306;28;20030;-66
2021/12/01 04:49:15;;;;;;;1.73;0.60;;;3.70;99.90;;;;;;5011698;28;20060;-63
2021/12/01 04:51:42;;;;;;;1.48;0.60;;;3.80;99.90;;;;;;5010679;28;20108;-69
2021/12/01 04:54:09;;;;;;;1.45;0.70;;;3.80;99.90;;;;;;4998030;28;20021;-63
2021/12/01 04:56:36;;;;;;;1.40;0.70;;;3.80;99.90;;;;;;5010053;28;20026;-64
2021/12/01 04:59:03;;;;;;;1.42;0.65;;;3.80;99.90;;;;;;5008813;28;20049;-63
2021/12/01 05:01:29;;;;;;;1.83;0.73;;;3.90;99.90;;;;;;5011043;28;20053;-62
2021/12/01 05:03:55;;;;;;;1.00;0.60;;;3.90;99.90;;;;;;4991576;28;20057;-63
2021/12/01 05:06:22;;;;;;;2.50;0.77;;;4.00;99.90;;;;;;4992083;28;20034;-66
2021/12/01 05:08:48;;;;;;;1.40;0.70;;;3.90;99.90;;;;;;4992806;28;20053;-63
2021/12/01 05:11:14;;;;;;;2.35;0.82;;;3.90;99.90;;;;;;5010360;28;20506;-64
2021/12/01 05:13:40;;;;;;;2.15;0.60;;;3.90;99.90;;;;;;5010806;28;20129;-68
2021/12/01 05:16:06;;;;;;;2.08;0.70;;;3.90;99.90;;;;;;5009479;28;20125;-63
2021/12/01 05:18:31;;;;;;;1.60;0.88;;;3.90;99.90;;;;;;5009413;28;20041;-65
2021/12/01 05:20:57;;;;;;;1.60;0.77;;;3.90;99.90;;;;;;5008756;28;20030;-63
2021/12/01 05:23:23;;;;;;;1.75;0.90;;;3.90;99.90;;;;;;5011641;28;20057;-63
2021/12/01 05:25:48;;;;;;;1.63;0.70;;;3.90;99.90;;;;;;5009765;28;20033;-63
2021/12/01 05:28:14;;;;;;;3.13;0.70;;;3.90;99.90;;;;;;5009306;28;20097;-63
2021/12/01 05:30:40;;;;;;;1.88;0.80;;;3.90;99.90;;;;;;5010194;28;20058;-69
2021/12/01 05:33:08;;;;;;;1.30;0.52;;;4.00;99.90;;;;;;5009455;28;20041;-65
2021/12/01 05:35:36;;;;;;;0.85;0.60;;;4.00;99.90;;;;;;4990460;28;20041;-65
2021/12/01 05:38:05;;;;;;;1.23;0.65;;;4.10;99.90;;;;;;5008693;28;20048;-63
2021/12/01 05:40:32;;;;;;;2.13;0.70;;;4.10;99.90;;;;;;4992692;28;20136;-63
2021/12/01 05:42:58;;;;;;;1.73;0.70;;;4.10;99.90;;;;;;5009966;28;20483;-63
2021/12/01 05:45:24;;;;;;;3.08;0.80;;;4.00;99.90;;;;;;5010013;28;20542;-64
2021/12/01 05:47:50;;;;;;;1.60;0.70;;;4.00;99.90;;;;;;5009019;28;20101;-62
2021/12/01 05:50:16;;;;;;;3.28;0.60;;;4.10;99.90;;;;;;5009461;28;20033;-65
2021/12/01 05:52:43;;;;;;;2.75;0.65;;;4.20;99.90;;;;;;5006022;28;20552;-68
2021/12/01 05:55:09;;;;;;;1.65;0.60;;;4.20;99.90;;;;;;5007528;28;20029;-63
2021/12/01 05:57:35;;;;;;;1.60;0.70;;;4.30;99.90;;;;;;5009780;28;20030;-63
2021/12/01 06:00:04;;;;;;;1.45;0.60;;;4.30;99.90;;;;;;4989051;28;20037;-64
2021/12/01 06:02:29;;;;;;;5.38;0.80;;;4.30;99.90;;;;;;5006866;28;20396;-63
2021/12/01 06:04:55;;;;;;;2.88;0.85;;;4.30;99.90;;;;;;5007732;28;20041;-63
2021/12/01 06:07:21;;;;;;;2.55;1.10;;;4.30;99.90;;;;;;4979323;28;20029;-64
2021/12/01 06:09:46;;;;;;;1.90;0.95;;;4.40;99.90;;;;;;5000406;28;20387;-68
2021/12/01 06:12:13;;;;;;;2.42;0.80;;;4.30;99.90;;;;;;4991360;28;20068;-63
2021/12/01 06:14:43;;;;;;;3.42;0.80;;;4.40;99.90;;;;;;4995825;28;20058;-63
2021/12/01 06:17:10;;;;;;;2.90;0.80;;;4.40;99.90;;;;;;4983486;28;20033;-63
2021/12/01 06:19:37;;;;;;;2.28;0.80;;;4.40;99.90;;;;;;5009529;28;20041;-64
2021/12/01 06:22:03;;;;;;;0.93;0.50;;;4.50;99.90;;;;;;4996115;28;20038;-64
2021/12/01 06:24:29;;;;;;;2.80;0.88;;;4.50;99.90;;;;;;5009166;28;20033;-63
2021/12/01 06:26:55;;;;;;;2.08;0.80;;;4.60;99.90;;;;;;4994711;28;20026;-64
2021/12/01 06:29:20;;;;;;;1.58;0.65;;;4.60;99.90;;;;;;5000481;28;20038;-64
2021/12/01 06:31:46;;;;;;;1.25;0.60;;;4.60;99.90;;;;;;4996863;28;20084;-69
2021/12/01 06:34:12;;;;;;;2.60;0.80;;;4.70;99.90;;;;;;5006997;28;20666;-63
2021/12/01 06:36:38;;;;;;;1.45;0.57;;;4.70;99.90;;;;;;4971935;28;20529;-63
2021/12/01 06:39:06;;;;;;;2.67;0.77;;;4.70;99.90;;;;;;5008551;28;20091;-63
2021/12/01 06:41:31;;;;;;;2.28;0.57;;;4.60;99.90;;;;;;5008170;28;20116;-64
2021/12/01 06:43:57;;;;;;;1.25;0.63;;;4.60;99.90;;;;;;5007687;28;20160;-64
2021/12/01 06:46:23;;;;;;;2.15;0.93;;;4.70;99.90;;;;;;5007420;28;20034;-64
2021/12/01 06:48:50;;;;;;;2.70;0.90;;;4.60;99.90;;;;;;4993295;28;20037;-65
2021/12/01 06:51:16;;;;;;;3.13;0.90;;;4.60;99.90;;;;;;5003733;28;20787;-64
2021/12/01 06:53:41;;;;;;;1.80;0.70;;;4.60;99.90;;;;;;4976025;28;20035;-65
2021/12/01 06:56:09;;;;;;;3.38;0.80;;;4.60;99.90;;;;;;5005243;28;20026;-63
2021/12/01 06:58:36;;;;;;;2.55;1.08;;;4.60;99.90;;;;;;5003067;28;20021;-65
2021/12/01 07:01:04;;;;;;;2.13;0.70;;;4.60;99.90;;;;;;5000278;28;20053;-63
2021/12/01 07:03:30;;;;;;;1.23;0.57;;;4.60;99.90;;;;;;5001987;28;20029;-61
2021/12/01 07:05:56;;;;;;;1.15;0.52;;;4.60;99.90;;;;;;5006051;28;20033;-72
2021/12/01 07:08:22;;;;;;;2.53;0.90;;;4.70;99.90;;;;;;5005926;28;20034;-68
2021/12/01 07:10:48;;;;;;;1.67;0.68;;;4.70;99.90;;;;;;5003274;28;20025;-70
2021/12/01 07:13:13;;;;;;;1.58;0.70;;;4.60;99.90;;;;;;4999510;28;20073;-63
2021/12/01 07:15:39;;;;;;;2.03;0.60;;;4.70;99.90;;;;;;5001996;28;20027;-64
2021/12/01 07:18:05;;;;;;;1.83;0.63;;;4.70;99.90;;;;;;4997786;28;20033;-67
2021/12/01 07:20:31;;;;;;;1.23;0.52;;;4.80;99.90;;;;;;5000367;28;20042;-68
2021/12/01 07:22:56;;;;;;;1.25;0.55;;;4.90;99.90;;;;;;5004591;28;20044;-73
2021/12/01 07:25:22;;;;;;;1.13;0.47;;;4.90;99.90;;;;;;4997567;28;20044;-62
2021/12/01 07:27:48;;;;;;;0.73;0.40;;;4.80;99.90;;;;;;5002028;28;20450;-62
2021/12/01 07:30:13;;;;;;;2.65;0.60;;;4.90;99.90;;;;;;4994933;28;20054;-62
2021/12/01 07:32:39;;;;;;;1.45;0.52;;;4.90;99.90;;;;;;5002784;28;20035;-61
2021/12/01 07:35:06;;;;;;;1.00;0.40;;;4.90;99.90;;;;;;4995071;28;20037;-61
2021/12/01 07:37:32;;;;;;;1.05;0.40;;;5.00;99.90;;;;;;5000367;28;20412;-63
2021/12/01 07:39:58;;;;;;;1.75;0.60;;;5.00;99.90;;;;;;5002044;28;20041;-64
2021/12/01 07:42:23;;;;;;;1.15;0.57;;;4.90;99.90;;;;;;4998961;28;20033;-63
2021/12/01 07:44:49;;;;;;;2.05;0.80;;;5.00;99.90;;;;;;5002618;28;20037;-63
2021/12/01 07:47:15;;;;;;;1.08;0.50;;;5.00;99.90;;;;;;5005291;28;20032;-63
2021/12/01 07:49:41;;;;;;;1.85;0.55;;;5.00;99.90;;;;;;4995026;28;20538;-64
2021/12/01 07:52:07;;;;;;;1.63;0.50;;;5.00;99.90;;;;;;5000116;28;20030;-63
2021/12/01 07:54:34;;;;;;;0.95;0.50;;;5.00;99.90;;;;;;5001420;28;20471;-63
2021/12/01 07:57:01;;;;;;;1.95;0.63;;;5.10;99.90;;;;;;5001199;28;20061;-63
2021/12/01 07:59:27;;;;;;;1.67;0.63;;;5.10;99.90;;;;;;4986769;28;20037;-66
2021/12/01 08:01:53;;;;;;;0.95;0.43;;;5.10;99.90;;;;;;5005403;28;20061;-63
2021/12/01 08:04:18;;;;;;;2.08;0.88;;;5.30;99.90;;;;;;5004203;28;20471;-65
2021/12/01 08:06:44;;;;;;;1.65;0.70;;;5.40;99.90;;;;;;5003070;28;20403;-63
2021/12/01 08:09:11;;;;;;;1.35;0.60;;;5.40;99.90;;;;;;4997458;28;20607;-63
2021/12/01 08:11:38;;;;;;;1.30;0.30;;;5.40;99.90;;;;;;5002715;28;20042;-62
2021/12/01 08:14:06;;;;;;;1.08;0.40;;;5.50;99.90;;;;;;4983001;28;20042;-65
2021/12/01 08:16:32;;;;;;;2.67;0.40;;;5.60;99.90;;;;;;4998729;28;20038;-62
2021/12/01 08:18:58;;;;;;;1.30;0.60;;;5.60;99.90;;;;;;5007007;28;20041;-62
2021/12/01 08:21:24;;;;;;;0.88;0.43;;;5.60;99.90;;;;;;5004830;28;20113;-62
2021/12/01 08:23:52;;;;;;;0.82;0.43;;;5.60;99.90;;;;;;5004133;28;20034;-62
2021/12/01 08:26:18;;;;;;;1.52;0.60;;;5.60;99.90;;;;;;4995126;28;20068;-62
2021/12/01 08:28:46;;;;;;;2.42;0.65;;;5.70;99.90;;;;;;4987753;28;20022;-62
2021/12/01 08:31:13;;;;;;;1.25;0.50;;;5.70;99.90;;;;;;5008912;28;20634;-62
2021/12/01 08:33:39;;;;;;;0.50;0.20;;;5.80;99.90;;;;;;5009232;28;20026;-63
2021/12/01 08:36:05;;;;;;;0.80;0.38;;;5.70;99.90;;;;;;5006380;28;20088;-62
2021/12/01 08:38:31;;;;;;;3.15;0.32;;;5.80;99.90;;;;;;4992758;28;20026;-61
2021/12/01 08:40:58;;;;;;;1.15;0.35;;;5.90;99.90;;;;;;5007301;28;20032;-61
2021/12/01 08:43:23;;;;;;;0.85;0.20;;;6.00;99.90;;;;;;5011752;28;20048;-64
2021/12/01 08:45:49;;;;;;;0.40;0.20;;;6.10;99.90;;;;;;5010636;28;20494;-64
2021/12/01 08:48:15;;;;;;;0.73;0.30;;;6.10;99.90;;;;;;4992768;28;20054;-62
2021/12/01 08:50:41;;;;;;;0.65;0.30;;;6.20;99.90;;;;;;5002475;28;20034;-62
2021/12/01 08:53:06;;;;;;;0.88;0.20;;;6.20;99.90;;;;;;5010574;28;20034;-62
2021/12/01 08:55:32;;;;;;;0.88;0.40;;;6.30;99.90;;;;;;5011629;28;20030;-62
2021/12/01 08:57:58;;;;;;;1.05;0.20;;;6.40;99.90;;;;;;5010593;28;20438;-61
2021/12/01 09:00:24;;;;;;;1.02;0.30;;;6.50;99.90;;;;;;4994110;28;20038;-62
2021/12/01 09:02:49;;;;;;;1.30;0.32;;;6.50;99.90;;;;;;5011523;28;20029;-62
2021/12/01 09:05:15;;;;;;;0.90;0.30;;;6.60;99.90;;;;;;5010762;28;20151;-62
2021/12/01 09:07:41;;;;;;;3.05;0.30;;;6.70;99.90;;;;;;5009319;28;20041;-63
2021/12/01 09:10:07;;;;;;;1.48;0.30;;;6.90;99.90;;;;;;5010229;28;20044;-62
2021/12/01 09:12:35;;;;;;;2.60;0.22;;;6.80;99.90;;;;;;4993710;28;20121;-62
2021/12/01 09:15:01;;;;;;;0.55;0.22;;;6.80;99.90;;;;;;5010459;28;20069;-62
2021/12/01 09:17:27;;;;;;;1.45;0.40;;;6.80;99.90;;;;;;5011487;28;20398;-62
2021/12/01 09:19:53;;;;;;;1.08;0.30;;;6.80;99.90;;;;;;5010800;28;20034;-62
2021/12/01 09:22:20;;;;;;;1.00;0.30;;;6.80;99.90;;;;;;5010092;28;20111;-63
2021/12/01 09:24:47;;;;;;;1.15;0.30;;;6.80;99.90;;;;;;5010674;28;20545;-62
2021/12/01 09:27:14;;;;;;;0.93;0.40;;;6.80;99.90;;;;;;5009009;28;20974;-62
2021/12/01 09:29:40;;;;;;;0.60;0.40;;;6.70;99.90;;;;;;5006730;28;20442;-63
2021/12/01 09:32:07;;;;;;;0.73;0.38;;;6.70;99.90;;;;;;5008275;28;20064;-62
2021/12/01 09:34:33;;;;;;;1.38;0.60;;;6.60;99.90;;;;;;4989536;28;20107;-62
2021/12/01 09:36:58;;;;;;;1.08;0.50;;;6.70;99.90;;;;;;4990894;28;20451;-62
2021/12/01 09:39:25;;;;;;;1.55;0.68;;;6.70;99.90;;;;;;5000936;28;20085;-62
2021/12/01 09:41:54;;;;;;;1.38;0.50;;;6.80;99.90;;;;;;5006973;28;20088;-64
2021/12/01 09:44:20;;;;;;;1.20;0.40;;;6.90;99.90;;;;;;4992141;28;20042;-64
2021/12/01 09:46:45;;;;;;;1.85;0.70;;;6.90;99.90;;;;;;4989357;28;20041;-62
2021/12/01 09:49:11;;;;;;;2.20;0.88;;;7.00;99.90;;;;;;5008558;28;20032;-64
2021/12/01 09:51:37;;;;;;;2.50;0.80;;;7.00;99.90;;;;;;4989921;28;20478;-61
2021/12/01 09:54:04;;;;;;;1.17;0.50;;;7.00;99.90;;;;;;5004016;28;20034;-61
2021/12/01 09:56:31;;;;;;;0.55;0.20;;;7.00;99.90;;;;;;5004078;28;20030;-65
2021/12/01 09:58:58;;;;;;;0.20;0.00;;;7.20;99.90;;;;;;5001664;28;20120;-64
2021/12/01 10:01:26;;;;;;;1.60;0.10;;;7.50;99.90;;;;;;5009592;28;20026;-65
2021/12/01 10:03:52;;;;;;;0.15;0.10;;;7.80;99.90;;;;;;5006174;28;20402;-65
2021/12/01 10:06:21;;;;;;;0.52;0.10;;;7.90;99.90;;;;;;5008174;28;20025;-64
2021/12/01 10:08:52;;;;;;;0.43;0.17;;;8.20;99.90;;;;;;5003904;28;20030;-65
2021/12/01 10:11:21;;;;;;;0.40;0.10;;;8.20;99.90;;;;;;5004522;28;20036;-65
2021/12/01 10:13:50;;;;;;;0.20;0.10;;;8.20;99.90;;;;;;5008474;28;20054;-65
2021/12/01 10:16:18;;;;;;;0.68;0.13;;;8.30;99.90;;;;;;5002941;28;20127;-65
2021/12/01 10:18:47;;;;;;;0.38;0.00;;;8.30;99.90;;;;;;5001643;28;20021;-65
2021/12/01 10:21:34;;;;;;;0.82;0.10;;;8.30;99.90;;;;;;5006855;28;20524;-65
2021/12/01 10:24:07;;;;;;;0.38;0.10;;;8.30;99.90;;;;;;5008246;28;20025;-64
2021/12/01 10:26:38;;;;;;;0.50;0.00;;;8.30;99.90;;;;;;4995196;28;20027;-65
2021/12/01 10:29:08;;;;;;;1.40;0.10;;;8.50;99.90;;;;;;5002863;28;20054;-65
2021/12/01 10:31:33;;;;;;;0.08;0.00;;;8.50;99.90;;;;;;5007056;28;20036;-66
2021/12/01 10:34:21;;;;;;;1.75;0.10;;;8.50;99.90;;;;;;5009279;28;20037;-65
2021/12/01 10:37:06;;;;;;;0.20;0.03;;;8.50;99.90;;;;;;4992064;28;20040;-64
2021/12/01 10:39:32;;;;;;;0.45;0.20;;;8.60;99.90;;;;;;5009677;28;20030;-65
2021/12/01 10:42:04;;;;;;;0.60;0.20;;;8.60;99.90;;;;;;5008972;28;20076;-64
2021/12/01 10:44:30;;;;;;;0.55;0.10;;;8.50;99.90;;;;;;4990293;28;20030;-66
2021/12/01 10:46:56;;;;;;;0.10;0.00;;;8.60;99.90;;;;;;5009314;28;20038;-65
2021/12/01 10:49:34;;;;;;;0.85;0.10;;;8.60;99.90;;;;;;5005435;28;20611;-66
2021/12/01 10:52:00;;;;;;;0.30;0.10;;;8.60;99.90;;;;;;5002192;28;20085;-64
2021/12/01 10:54:26;;;;;;;0.50;0.13;;;8.50;99.90;;;;;;5008787;28;20030;-66
2021/12/01 10:57:18;;;;;;;0.70;0.30;;;8.50;99.90;;;;;;5005535;28;20489;-66
2021/12/01 10:59:52;;;;;;;0.77;0.30;;;8.50;99.90;;;;;;5009187;28;20088;-66
2021/12/01 11:02:19;;;;;;;0.28;0.10;;;8.50;99.90;;;;;;5008429;28;20032;-66
2021/12/01 11:04:50;;;;;;;0.30;0.10;;;8.40;99.90;;;;;;5009348;28;20114;-66
2021/12/01 11:07:42;;;;;;;0.25;0.10;;;8.40;99.90;;;;;;5008297;28;20044;-66
2021/12/01 11:10:14;;;;;;;0.28;0.10;;;8.40;99.90;;;;;;4996911;28;20042;-66
2021/12/01 11:12:41;;;;;;;0.25;0.10;;;8.30;99.90;;;;;;5008344;28;20038;-65
2021/12/01 11:15:23;;;;;;;0.10;0.00;;;8.30;99.90;;;;;;5006656;28;20038;-65
2021/12/01 11:17:50;;;;;;;0.75;0.20;;;8.30;99.90;;;;;;4989905;28;20061;-66
2021/12/01 11:20:52;;;;;;;1.02;0.28;;;8.30;99.90;;;;;;5006179;28;20033;-66
2021/12/01 11:23:23;;;;;;;1.15;0.20;;;8.30;99.90;;;;;;4927584;29;20489;-66
2021/12/01 11:25:56;;;;;;;0.40;0.10;;;8.40;99.90;;;;;;4995470;28;20479;-66
2021/12/01 11:28:27;;;;;;;2.30;0.10;;;8.40;99.90;;;;;;5008893;28;20030;-66
2021/12/01 11:30:57;;;;;;;0.30;0.10;;;8.40;99.90;;;;;;5009085;28;20172;-66
2021/12/01 11:33:24;;;;;;;0.25;0.10;;;8.40;99.90;;;;;;5008155;28;20049;-66
2021/12/01 11:35:58;;;;;;;0.25;0.10;;;8.40;99.90;;;;;;5009094;28;20530;-66
2021/12/01 11:38:23;;;;;;;0.30;0.03;;;8.40;99.90;;;;;;5007574;28;20030;-66
2021/12/01 11:40:50;;;;;;;1.67;0.15;;;8.50;99.90;;;;;;5008777;28;20052;-66
2021/12/01 11:43:19;;;;;;;0.63;0.20;;;8.50;99.90;;;;;;4990264;28;20695;-66
2021/12/01 11:45:46;;;;;;;1.17;0.20;;;8.50;99.90;;;;;;5008616;28;20034;-66
2021/12/01 11:48:26;;;;;;;1.55;0.40;;;8.50;99.90;;;;;;5007934;28;20033;-66
2021/12/01 11:51:15;;;;;;;1.95;0.20;;;8.50;99.90;;;;;;5008196;28;20125;-67
2021/12/01 11:54:03;;;;;;;1.83;0.30;;;8.60;99.90;;;;;;5008231;28;20053;-66
2021/12/01 11:56:37;;;;;;;0.77;0.13;;;8.70;99.90;;;;;;5008180;28;20030;-67
2021/12/01 11:59:14;;;;;;;0.43;0.10;;;8.60;99.90;;;;;;5008442;28;20033;-65
2021/12/01 12:01:48;;;;;;;0.38;0.20;;;8.70;99.90;;;;;;5008635;28;20038;-66
2021/12/01 12:04:14;;;;;;;0.95;0.15;;;8.70;99.90;;;;;;4988962;28;20030;-66
2021/12/01 12:06:52;;;;;;;1.73;0.10;;;8.60;99.90;;;;;;5009189;28;20098;-67
2021/12/01 12:09:21;;;;;;;0.50;0.20;;;8.60;99.90;;;;;;5011617;28;20064;-66
2021/12/01 12:11:58;;;;;;;1.05;0.20;;;8.60;99.90;;;;;;5012022;28;20038;-67
2021/12/01 12:14:34;;;;;;;0.75;0.20;;;8.60;99.90;;;;;;5011269;28;20048;-67
2021/12/01 12:17:13;;;;;;;0.50;0.20;;;8.60;99.90;;;;;;5011891;28;20531;-66
2021/12/01 12:20:11;;;;;;;0.60;0.28;;;8.60;99.90;;;;;;5012569;28;20022;-67
2021/12/01 12:22:42;;;;;;;0.75;0.20;;;8.60;99.90;;;;;;5011710;28;20037;-66
2021/12/01 12:25:11;;;;;;;0.57;0.20;;;8.70;99.90;;;;;;5010992;28;20080;-65
2021/12/01 12:27:39;;;;;;;0.70;0.30;;;8.70;99.90;;;;;;5011465;28;20053;-66
2021/12/01 12:30:10;;;;;;;2.58;0.20;;;8.70;99.90;;;;;;5011804;28;20113;-65
2021/12/01 12:32:37;;;;;;;0.47;0.25;;;8.80;99.90;;;;;;5008610;28;20074;-67
2021/12/01 12:35:09;;;;;;;0.60;0.20;;;8.70;99.90;;;;;;5012145;28;20091;-67
2021/12/01 12:37:35;;;;;;;0.82;0.20;;;8.70;99.90;;;;;;5012020;28;20022;-67
2021/12/01 12:40:09;;;;;;;0.55;0.17;;;8.70;99.90;;;;;;5011218;28;20154;-67
2021/12/01 12:42:35;;;;;;;1.70;0.50;;;8.70;99.90;;;;;;5011487;28;20113;-66
2021/12/01 12:45:01;;;;;;;0.88;0.30;;;8.70;99.90;;;;;;5012310;28;20120;-66
2021/12/01 12:47:38;;;;;;;0.43;0.20;;;8.70;99.90;;;;;;5001735;28;20110;-65
2021/12/01 12:50:19;;;;;;;0.98;0.30;;;8.70;99.90;;;;;;4992491;28;20029;-66
2021/12/01 12:52:48;;;;;;;0.93;0.43;;;8.70;99.90;;;;;;5001112;28;20041;-66
2021/12/01 12:55:22;;;;;;;2.90;0.30;;;8.80;99.90;;;;;;5010196;28;20030;-66
2021/12/01 12:58:09;;;;;;;0.50;0.20;;;8.80;99.90;;;;;;4994289;28;20431;-64
2021/12/01 13:00:53;;;;;;;0.47;0.28;;;8.80;99.90;;;;;;5010592;28;20566;-66
2021/12/01 13:03:26;;;;;;;1.50;0.38;;;8.80;99.90;;;;;;4990298;28;20382;-65
2021/12/01 13:05:54;;;;;;;2.38;0.10;;;8.80;99.90;;;;;;5005481;28;20576;-66
2021/12/01 13:08:26;;;;;;;0.95;0.30;;;8.80;99.90;;;;;;5006423;28;20418;-66
2021/12/01 13:10:52;;;;;;;0.88;0.30;;;8.80;99.90;;;;;;4992824;28;20382;-65
2021/12/01 13:13:27;;;;;;;1.48;0.50;;;8.80;99.90;;;;;;5007589;28;20049;-66